createdAt,value
2022-08-04T00:03:00.445Z,61.64
2022-08-04T00:06:38.301Z,60.08
2022-08-04T00:09:59.809Z,60.18
2022-08-04T00:13:03.748Z,60.87
2022-08-04T00:16:06.437Z,62.81
2022-08-04T00:19:16.650Z,63.69
2022-08-04T00:22:22.797Z,64.02
2022-08-04T00:25:25.546Z,64.17
2022-08-04T00:28:28.293Z,62.38
2022-08-04T00:31:33.272Z,63.17
2022-08-04T00:34:51.666Z,63.68
2022-08-04T00:37:55.479Z,63.26
2022-08-04T00:41:06.591Z,66.55
2022-08-04T00:44:23.750Z,71.08
2022-08-04T00:47:31.482Z,71.54
2022-08-04T00:50:59.503Z,67.67
2022-08-04T00:54:00.891Z,71.56
2022-08-04T00:57:34.399Z,75.05
2022-08-04T01:00:58.528Z,76.94
2022-08-04T01:04:15.769Z,79.68
2022-08-04T01:07:26.232Z,82.02
2022-08-04T01:11:01.587Z,83.07
2022-08-04T01:14:21.878Z,84.66
2022-08-04T01:17:35.980Z,85.43
2022-08-04T01:21:00.244Z,84.60
2022-08-04T01:24:26.587Z,83.19
2022-08-04T01:27:40.189Z,86.26
2022-08-04T01:30:48.600Z,85.33
2022-08-04T01:34:03.129Z,90.13
2022-08-04T01:37:26.485Z,90.81
2022-08-04T01:40:28.815Z,93.22
2022-08-04T01:43:32.455Z,90.84
2022-08-04T01:46:35.169Z,95.83
2022-08-04T01:49:40.139Z,89.29
2022-08-04T01:52:47.595Z,90.32
2022-08-04T01:55:55.586Z,91.83
2022-08-04T01:58:57.687Z,93.96
2022-08-04T02:01:59.353Z,93.17
2022-08-04T02:05:00.973Z,94.13
2022-08-04T02:08:17.465Z,94.95
2022-08-04T02:11:22.156Z,99.14
2022-08-04T02:14:42.744Z,99.25
2022-08-04T02:17:57.058Z,100.00
2022-08-04T02:21:01.518Z,100.00
2022-08-04T02:24:12.273Z,100.00
2022-08-04T02:27:15.025Z,100.00
2022-08-04T02:30:19.218Z,100.00
2022-08-04T02:33:27.383Z,100.00
2022-08-04T02:36:34.869Z,100.00
2022-08-04T02:39:42.448Z,100.00
2022-08-04T02:42:50.989Z,99.59
2022-08-04T02:45:56.427Z,98.27
2022-08-04T02:48:58.009Z,99.57
2022-08-04T02:52:00.703Z,96.83
2022-08-04T02:55:03.004Z,100.00
2022-08-04T02:58:05.688Z,99.01
2022-08-04T03:01:07.191Z,100.00
2022-08-04T03:04:09.139Z,100.00
2022-08-04T03:07:39.946Z,100.00
2022-08-04T03:11:12.172Z,100.00
2022-08-04T03:14:39.762Z,100.00
2022-08-04T03:18:15.068Z,100.00
2022-08-04T03:21:52.126Z,100.00
2022-08-04T03:25:56.638Z,100.00
2022-08-04T03:29:26.051Z,100.00
2022-08-04T03:33:03.343Z,100.00
2022-08-04T03:36:08.836Z,100.00
2022-08-04T03:39:38.582Z,100.00
2022-08-04T03:42:39.998Z,100.00
2022-08-04T03:45:52.474Z,100.00
2022-08-04T03:49:32.894Z,100.00
2022-08-04T03:53:11.376Z,100.00
2022-08-04T03:56:18.897Z,100.00
2022-08-04T03:59:41.973Z,100.00
2022-08-04T04:02:53.100Z,100.00
2022-08-04T04:06:22.200Z,100.00
2022-08-04T04:10:06.401Z,100.00
2022-08-04T04:13:21.552Z,100.00
2022-08-04T04:16:31.772Z,100.00
2022-08-04T04:19:58.354Z,100.00
2022-08-04T04:23:06.060Z,100.00
2022-08-04T04:26:34.694Z,100.00
2022-08-04T04:29:51.466Z,100.00
2022-08-04T04:32:57.683Z,100.00
2022-08-04T04:36:02.215Z,100.00
2022-08-04T04:39:16.508Z,100.00
2022-08-04T04:42:39.661Z,100.00
2022-08-04T04:46:15.178Z,100.00
2022-08-04T04:49:26.085Z,100.00
2022-08-04T04:52:41.444Z,100.00
2022-08-04T04:55:48.438Z,100.00
2022-08-04T04:58:54.401Z,100.00
2022-08-04T05:02:01.881Z,100.00
2022-08-04T05:05:33.451Z,100.00
2022-08-04T05:09:08.788Z,100.00
2022-08-04T05:14:29.999Z,100.00
2022-08-04T05:15:47.932Z,100.00
2022-08-04T05:18:59.393Z,100.00
2022-08-04T05:22:14.651Z,100.00
2022-08-04T05:25:27.104Z,100.00
2022-08-04T05:28:34.340Z,100.00
2022-08-04T05:31:42.689Z,100.00
2022-08-04T05:34:52.451Z,100.00
2022-08-04T05:38:01.418Z,100.00
2022-08-04T05:41:04.651Z,100.00
2022-08-04T05:44:09.687Z,100.00
2022-08-04T05:47:12.933Z,100.00
2022-08-04T05:50:14.546Z,100.00
2022-08-04T05:53:17.962Z,100.00
2022-08-04T05:56:19.723Z,100.00
2022-08-04T05:59:25.589Z,100.00
2022-08-04T06:02:28.411Z,100.00
2022-08-04T06:05:30.599Z,100.00
2022-08-04T06:08:32.312Z,100.00
2022-08-04T06:11:59.132Z,100.00
2022-08-04T06:14:59.974Z,100.00
2022-08-04T06:19:59.308Z,100.00
2022-08-04T06:21:31.512Z,100.00
2022-08-04T06:24:36.325Z,100.00
2022-08-04T06:27:38.507Z,100.00
2022-08-04T06:30:41.313Z,100.00
2022-08-04T06:33:54.485Z,100.00
2022-08-04T06:36:58.431Z,100.00
2022-08-04T06:40:04.110Z,100.00
2022-08-04T06:43:27.817Z,100.00
2022-08-04T06:46:32.271Z,100.00
2022-08-04T06:51:23.476Z,100.00
2022-08-04T06:52:56.512Z,100.00
2022-08-04T06:56:01.104Z,100.00
2022-08-04T06:59:03.759Z,98.68
2022-08-04T07:02:05.446Z,99.25
2022-08-04T07:05:08.561Z,97.72
2022-08-04T07:08:11.851Z,96.90
2022-08-04T07:11:14.958Z,93.31
2022-08-04T07:14:17.899Z,81.49
2022-08-04T07:17:22.172Z,76.69
2022-08-04T07:20:30.400Z,78.25
2022-08-04T07:23:36.762Z,78.98
2022-08-04T07:26:38.265Z,79.97
2022-08-04T07:29:40.070Z,82.22
2022-08-04T07:32:43.736Z,79.10
2022-08-04T07:36:04.975Z,73.38
2022-08-04T07:39:27.305Z,72.19
2022-08-04T07:42:30.574Z,73.54
2022-08-04T07:45:33.215Z,72.91
2022-08-04T07:48:35.008Z,74.83
2022-08-04T07:51:37.488Z,76.72
2022-08-04T07:54:40.025Z,72.28
2022-08-04T07:57:42.275Z,66.80
2022-08-04T08:00:46.781Z,65.86
2022-08-04T08:03:49.632Z,64.77
2022-08-04T08:06:51.609Z,63.35
2022-08-04T08:09:53.325Z,64.78
2022-08-04T08:12:55.560Z,62.72
2022-08-04T08:15:57.676Z,63.15
2022-08-04T08:19:00.773Z,66.09
2022-08-04T08:22:02.799Z,67.91
2022-08-04T08:25:08.674Z,61.48
2022-08-04T08:28:10.493Z,58.01
2022-08-04T08:31:11.984Z,53.59
2022-08-04T08:34:14.267Z,52.58
2022-08-04T08:37:45.460Z,54.53
2022-08-04T08:40:46.849Z,56.78
2022-08-04T08:44:08.836Z,54.46
2022-08-04T08:47:30.496Z,57.09
2022-08-04T08:51:06.902Z,53.65
2022-08-04T08:54:36.915Z,50.86
2022-08-04T08:58:00.105Z,51.91
2022-08-04T09:01:02.290Z,50.02
2022-08-04T09:04:36.798Z,51.65
2022-08-04T09:08:17.695Z,46.29
2022-08-04T09:11:23.823Z,48.09
2022-08-04T09:14:39.894Z,46.60
2022-08-04T09:17:50.000Z,49.50
2022-08-04T09:21:10.987Z,49.45
2022-08-04T09:24:36.714Z,46.84
2022-08-04T09:27:46.198Z,46.16
2022-08-04T09:31:07.235Z,47.22
2022-08-04T09:34:08.943Z,48.82
2022-08-04T09:37:46.196Z,47.77
2022-08-04T09:40:59.954Z,45.69
2022-08-04T09:44:52.268Z,43.98
2022-08-04T09:48:07.390Z,43.88
2022-08-04T09:51:24.410Z,43.42
2022-08-04T09:55:01.837Z,42.06
2022-08-04T09:58:09.270Z,41.30
2022-08-04T10:01:21.061Z,40.86
2022-08-04T10:04:29.220Z,39.88
2022-08-04T10:08:17.251Z,39.54
2022-08-04T10:11:33.184Z,38.58
2022-08-04T10:14:52.997Z,40.90
2022-08-04T10:17:54.543Z,39.50
2022-08-04T10:21:15.250Z,38.13
2022-08-04T10:24:29.903Z,40.21
2022-08-04T10:27:43.392Z,40.00
2022-08-04T10:30:51.853Z,38.40
2022-08-04T10:34:21.765Z,36.22
2022-08-04T10:37:59.829Z,41.07
2022-08-04T10:41:25.171Z,37.79
2022-08-04T10:45:02.261Z,37.39
2022-08-04T10:48:36.142Z,35.32
2022-08-04T10:52:02.054Z,38.54
2022-08-04T10:55:19.398Z,36.55
2022-08-04T10:58:47.979Z,37.83
2022-08-04T11:02:03.086Z,35.86
2022-08-04T11:05:31.221Z,35.02
2022-08-04T11:08:36.838Z,33.78
2022-08-04T11:12:00.446Z,36.84
2022-08-04T11:15:15.429Z,35.21
2022-08-04T11:18:27.713Z,35.56
2022-08-04T11:21:34.071Z,35.54
2022-08-04T11:24:50.354Z,36.37
2022-08-04T11:28:16.185Z,35.04
2022-08-04T11:31:25.585Z,32.50
2022-08-04T11:34:27.944Z,31.69
2022-08-04T11:37:45.478Z,31.73
2022-08-04T11:41:02.031Z,31.79
2022-08-04T11:44:11.916Z,34.29
2022-08-04T11:47:34.582Z,33.20
2022-08-04T11:50:43.317Z,32.48
2022-08-04T11:53:46.517Z,34.49
2022-08-04T11:56:48.306Z,34.01
2022-08-04T11:59:50.150Z,34.48
2022-08-04T12:03:09.192Z,31.44
2022-08-04T12:06:15.144Z,30.97
2022-08-04T12:09:37.558Z,31.88
2022-08-04T12:12:43.999Z,30.64
2022-08-04T12:16:15.098Z,30.41
2022-08-04T12:20:03.830Z,28.46
2022-08-04T12:23:15.990Z,28.75
2022-08-04T12:26:23.366Z,30.64
2022-08-04T12:29:28.111Z,30.76
2022-08-04T12:32:39.135Z,28.76
2022-08-04T12:36:10.387Z,30.37
2022-08-04T12:39:17.751Z,27.68
2022-08-04T12:42:42.164Z,27.97
2022-08-04T12:46:05.536Z,27.62
2022-08-04T12:49:08.835Z,28.21
2022-08-04T12:52:15.001Z,27.88
2022-08-04T12:55:18.253Z,28.55
2022-08-04T12:58:43.669Z,27.53
2022-08-04T13:02:07.812Z,28.90
2022-08-04T13:05:17.084Z,26.54
2022-08-04T13:08:20.999Z,25.88
2022-08-04T13:11:23.602Z,25.48
2022-08-04T13:14:32.046Z,26.74
2022-08-04T13:18:04.191Z,24.57
2022-08-04T13:21:19.283Z,24.38
2022-08-04T13:24:31.943Z,23.68
2022-08-04T13:27:43.255Z,23.42
2022-08-04T13:30:46.975Z,24.42
2022-08-04T13:33:51.897Z,27.04
2022-08-04T13:36:56.120Z,24.46
2022-08-04T13:39:59.994Z,26.94
2022-08-04T13:43:02.727Z,24.25
2022-08-04T13:46:06.472Z,25.14
2022-08-04T13:52:34.596Z,24.62
2022-08-04T13:55:37.093Z,27.42
2022-08-04T13:58:45.442Z,23.81
2022-08-04T14:01:58.470Z,23.63
2022-08-04T14:05:18.565Z,23.86
2022-08-04T14:08:26.255Z,24.53
2022-08-04T14:12:09.717Z,25.21
2022-08-04T14:14:56.323Z,24.38
2022-08-04T14:18:22.220Z,25.03
2022-08-04T14:21:23.672Z,24.21
2022-08-04T14:24:27.541Z,24.00
2022-08-04T14:27:29.203Z,23.11
2022-08-04T14:30:35.278Z,22.15
2022-08-04T14:34:01.759Z,23.39
2022-08-04T14:37:16.845Z,23.79
2022-08-04T14:40:30.847Z,23.12
2022-08-04T14:43:32.827Z,23.36
2022-08-04T14:46:51.081Z,22.67
2022-08-04T14:49:58.594Z,24.78
2022-08-04T14:53:16.077Z,25.27
2022-08-04T14:56:45.002Z,24.77
2022-08-04T15:00:00.815Z,23.97
2022-08-04T15:03:08.516Z,22.52
2022-08-04T15:06:14.427Z,25.25
2022-08-04T15:09:17.967Z,23.71
2022-08-04T15:12:20.010Z,25.54
2022-08-04T15:15:36.405Z,24.44
2022-08-04T15:18:39.314Z,23.08
2022-08-04T15:21:41.489Z,23.78
2022-08-04T15:24:43.008Z,22.30
2022-08-04T15:27:48.613Z,23.27
2022-08-04T15:30:53.408Z,24.87
2022-08-04T15:33:56.742Z,24.95
2022-08-04T15:37:04.012Z,25.41
2022-08-04T15:40:33.616Z,24.68
2022-08-04T15:43:44.763Z,26.67
2022-08-04T15:46:46.192Z,24.74
2022-08-04T15:50:03.968Z,23.99
2022-08-04T15:53:10.576Z,25.07
2022-08-04T15:56:23.529Z,23.42
2022-08-04T16:00:00.025Z,24.00
2022-08-04T16:03:01.627Z,22.36
2022-08-04T16:06:17.991Z,23.77
2022-08-04T16:09:24.727Z,24.08
2022-08-04T16:12:55.481Z,25.07
2022-08-04T16:16:03.006Z,27.66
2022-08-04T16:19:09.272Z,26.43
2022-08-04T16:22:13.468Z,25.93
2022-08-04T16:25:14.962Z,24.09
2022-08-04T16:28:34.860Z,22.80
2022-08-04T16:31:38.665Z,23.63
2022-08-04T16:34:53.861Z,24.10
2022-08-04T16:38:16.255Z,23.65
2022-08-04T16:41:38.735Z,25.69
2022-08-04T16:44:53.073Z,23.67
2022-08-04T16:47:55.144Z,28.49
2022-08-04T16:51:07.256Z,25.99
2022-08-04T16:54:09.153Z,25.19
2022-08-04T16:57:10.905Z,25.86
2022-08-04T17:00:12.820Z,24.34
2022-08-04T17:03:14.358Z,24.08
2022-08-04T17:06:16.052Z,24.38
2022-08-04T17:09:19.552Z,22.06
2022-08-04T17:12:28.399Z,24.08
2022-08-04T17:15:29.876Z,23.59
2022-08-04T17:18:35.508Z,23.10
2022-08-04T17:21:37.137Z,23.71
2022-08-04T17:24:40.844Z,23.66
2022-08-04T17:28:19.433Z,25.02
2022-08-04T17:31:09.582Z,24.11
2022-08-04T17:34:19.158Z,28.01
2022-08-04T17:37:53.103Z,27.90
2022-08-04T17:40:52.857Z,26.54
2022-08-04T17:44:06.505Z,25.43
2022-08-04T17:47:18.254Z,28.70
2022-08-04T17:50:35.680Z,24.31
2022-08-04T17:54:01.587Z,26.62
2022-08-04T17:57:12.737Z,26.10
2022-08-04T18:00:19.638Z,29.38
2022-08-04T18:03:23.709Z,25.87
2022-08-04T18:06:26.081Z,26.32
2022-08-04T18:10:01.692Z,26.13
2022-08-04T18:12:53.708Z,29.91
2022-08-04T18:16:03.094Z,29.86
2022-08-04T18:19:09.163Z,30.74
2022-08-04T18:22:16.666Z,32.15
2022-08-04T18:25:50.855Z,31.84
2022-08-04T18:28:51.761Z,34.98
2022-08-04T18:31:53.259Z,33.85
2022-08-04T18:34:57.318Z,38.11
2022-08-04T18:38:11.353Z,36.99
2022-08-04T18:41:24.551Z,37.40
2022-08-04T18:44:29.184Z,36.33
2022-08-04T18:47:31.522Z,36.53
2022-08-04T18:51:09.512Z,38.18
2022-08-04T18:54:13.007Z,40.43
2022-08-04T19:00:45.365Z,37.80
2022-08-04T19:03:52.252Z,38.15
2022-08-04T19:06:56.166Z,39.61
2022-08-04T19:10:26.433Z,37.87
2022-08-04T19:13:30.070Z,40.64
2022-08-04T19:16:36.708Z,42.05
2022-08-04T19:19:47.404Z,40.36
2022-08-04T19:24:10.357Z,40.79
2022-08-04T19:26:16.654Z,39.58
2022-08-04T19:29:37.601Z,40.15
2022-08-04T19:32:41.980Z,41.37
2022-08-04T19:35:50.712Z,40.69
2022-08-04T19:38:52.505Z,40.25
2022-08-04T19:42:05.932Z,41.64
2022-08-04T19:45:09.424Z,41.62
2022-08-04T19:51:39.626Z,41.48
2022-08-04T19:54:45.539Z,41.95
2022-08-04T19:57:53.135Z,45.23
2022-08-04T20:00:54.954Z,44.05
2022-08-04T20:04:09.006Z,44.63
2022-08-04T20:07:14.536Z,45.49
2022-08-04T20:10:17.285Z,46.51
2022-08-04T20:13:30.931Z,46.76
2022-08-04T20:16:40.131Z,45.78
2022-08-04T20:19:41.735Z,46.88
2022-08-04T20:22:53.415Z,44.45
2022-08-04T20:25:54.966Z,47.97
2022-08-04T20:28:57.726Z,44.21
2022-08-04T20:32:05.524Z,46.84
2022-08-04T20:35:15.715Z,46.36
2022-08-04T20:38:33.221Z,47.63
2022-08-04T20:41:37.102Z,46.86
2022-08-04T20:44:38.693Z,46.69
2022-08-04T20:47:45.975Z,44.31
2022-08-04T20:50:55.793Z,47.37
2022-08-04T20:53:59.266Z,44.95
2022-08-04T20:57:02.127Z,45.43
2022-08-04T21:00:06.230Z,44.73
2022-08-04T21:03:10.016Z,43.67
2022-08-04T21:06:11.379Z,46.77
2022-08-04T21:09:15.568Z,47.29
2022-08-04T21:12:29.125Z,47.22
2022-08-04T21:15:58.004Z,47.51
2022-08-04T21:18:52.042Z,46.10
2022-08-04T21:21:54.252Z,44.58
2022-08-04T21:24:55.706Z,43.25
2022-08-04T21:27:59.083Z,45.88
2022-08-04T21:31:11.372Z,46.60
2022-08-04T21:34:37.944Z,48.12
2022-08-04T21:37:57.791Z,50.10
2022-08-04T21:41:02.692Z,50.06
2022-08-04T21:44:04.569Z,49.35
2022-08-04T21:47:06.334Z,52.01
2022-08-04T21:50:19.999Z,51.62
2022-08-04T21:53:22.770Z,49.36
2022-08-04T21:56:26.558Z,50.37
2022-08-04T21:59:30.381Z,47.21
2022-08-04T22:02:32.558Z,49.98
2022-08-04T22:05:34.012Z,49.14
2022-08-04T22:08:37.457Z,48.21
2022-08-04T22:11:48.111Z,51.25
2022-08-04T22:14:59.449Z,49.62
2022-08-04T22:18:01.447Z,50.23
2022-08-04T22:21:09.559Z,50.46
2022-08-04T22:27:55.008Z,50.73
2022-08-04T22:30:57.622Z,54.06
2022-08-04T22:33:59.095Z,53.86
2022-08-04T22:37:01.362Z,55.01
2022-08-04T22:40:14.498Z,54.60
2022-08-04T22:43:32.528Z,51.69
2022-08-04T22:46:35.438Z,51.17
2022-08-04T22:49:39.635Z,55.91
2022-08-04T22:52:56.039Z,53.93
2022-08-04T22:56:09.988Z,53.37
2022-08-04T22:59:12.450Z,54.70
2022-08-04T23:02:15.170Z,54.40
2022-08-04T23:05:16.827Z,56.55
2022-08-04T23:08:19.445Z,55.18
2022-08-04T23:11:20.946Z,55.41
2022-08-04T23:14:22.626Z,55.20
2022-08-04T23:17:28.344Z,54.58
2022-08-04T23:20:32.931Z,54.34
2022-08-04T23:23:45.649Z,55.03
2022-08-04T23:27:00.282Z,54.97
2022-08-04T23:30:01.798Z,55.80
2022-08-04T23:33:05.123Z,55.65
2022-08-04T23:36:07.497Z,56.26
2022-08-04T23:39:13.367Z,56.78
2022-08-04T23:42:20.934Z,57.88
2022-08-04T23:46:03.824Z,59.38
2022-08-04T23:48:45.356Z,59.62
2022-08-04T23:51:46.864Z,61.60
2022-08-04T23:54:51.843Z,63.39
2022-08-04T23:58:05.587Z,65.14
